createdAt,value
2022-11-03T00:02:01.586Z,15.51
2022-11-03T00:04:32.395Z,15.98
2022-11-03T00:07:03.056Z,16.25
2022-11-03T00:09:34.296Z,16.38
2022-11-03T00:12:05.336Z,16.20
2022-11-03T00:14:35.947Z,15.14
2022-11-03T00:17:06.535Z,14.63
2022-11-03T00:19:37.199Z,15.42
2022-11-03T00:22:07.856Z,16.10
2022-11-03T00:24:38.480Z,16.02
2022-11-03T00:27:09.120Z,16.34
2022-11-03T00:29:39.898Z,15.58
2022-11-03T00:32:10.524Z,14.40
2022-11-03T00:34:41.562Z,14.67
2022-11-03T00:37:12.156Z,15.01
2022-11-03T00:39:42.789Z,15.34
2022-11-03T00:42:13.377Z,15.80
2022-11-03T00:44:44.149Z,16.16
2022-11-03T00:47:17.768Z,15.10
2022-11-03T00:49:50.766Z,14.35
2022-11-03T00:52:21.569Z,14.95
2022-11-03T00:54:55.195Z,15.38
2022-11-03T00:57:26.017Z,15.61
2022-11-03T00:59:56.879Z,15.94
2022-11-03T01:02:27.569Z,15.94
2022-11-03T01:05:15.674Z,14.80
2022-11-03T01:07:46.475Z,13.74
2022-11-03T01:10:17.180Z,14.39
2022-11-03T01:12:48.530Z,15.72
2022-11-03T01:15:19.677Z,15.58
2022-11-03T01:17:50.107Z,14.16
2022-11-03T01:20:21.224Z,14.32
2022-11-03T01:22:51.770Z,14.88
2022-11-03T01:25:23.270Z,15.36
2022-11-03T01:27:53.764Z,15.41
2022-11-03T01:30:24.639Z,15.60
2022-11-03T01:32:55.322Z,15.76
2022-11-03T01:35:25.862Z,15.84
2022-11-03T01:37:57.672Z,14.68
2022-11-03T01:40:28.371Z,13.61
2022-11-03T01:43:12.416Z,14.35
2022-11-03T01:45:43.125Z,15.00
2022-11-03T01:48:14.192Z,15.11
2022-11-03T01:50:46.345Z,15.70
2022-11-03T01:53:17.787Z,15.69
2022-11-03T01:55:50.764Z,15.42
2022-11-03T01:58:23.434Z,15.58
2022-11-03T02:00:56.156Z,15.83
2022-11-03T02:03:27.677Z,15.41
2022-11-03T02:05:58.364Z,14.17
2022-11-03T02:08:30.257Z,14.33
2022-11-03T02:11:20.852Z,15.01
2022-11-03T02:13:51.395Z,15.27
2022-11-03T02:16:24.827Z,15.13
2022-11-03T02:18:55.877Z,15.23
2022-11-03T02:21:28.224Z,15.32
2022-11-03T02:24:02.561Z,15.10
2022-11-03T02:26:33.276Z,13.52
2022-11-03T02:29:04.001Z,13.42
2022-11-03T02:31:36.792Z,13.80
2022-11-03T02:34:09.643Z,14.10
2022-11-03T02:36:43.253Z,14.36
2022-11-03T02:39:15.620Z,14.60
2022-11-03T02:41:48.143Z,14.86
2022-11-03T02:44:20.161Z,15.05
2022-11-03T02:46:54.063Z,15.05
2022-11-03T02:49:24.588Z,14.96
2022-11-03T02:52:01.917Z,14.93
2022-11-03T02:54:33.526Z,14.96
2022-11-03T02:57:07.044Z,15.00
2022-11-03T02:59:40.643Z,15.16
2022-11-03T03:02:13.580Z,15.05
2022-11-03T03:04:46.594Z,13.92
2022-11-03T03:07:18.900Z,12.83
2022-11-03T03:09:54.976Z,12.44
2022-11-03T03:12:30.758Z,13.40
2022-11-03T03:15:11.091Z,14.23
2022-11-03T03:17:46.175Z,14.62
2022-11-03T03:20:21.813Z,14.64
2022-11-03T03:22:59.272Z,14.55
2022-11-03T03:25:35.613Z,14.68
2022-11-03T03:28:09.888Z,14.79
2022-11-03T03:30:41.749Z,14.98
2022-11-03T03:33:13.649Z,14.95
2022-11-03T03:35:45.784Z,15.00
2022-11-03T03:38:27.085Z,13.93
2022-11-03T03:40:58.951Z,12.84
2022-11-03T03:43:30.376Z,13.28
2022-11-03T03:46:04.066Z,13.82
2022-11-03T03:48:32.826Z,14.12
2022-11-03T03:51:14.162Z,14.54
2022-11-03T03:53:51.108Z,14.83
2022-11-03T03:56:25.019Z,14.96
2022-11-03T03:58:55.786Z,14.05
2022-11-03T04:01:26.433Z,13.27
2022-11-03T04:04:01.212Z,13.59
2022-11-03T04:06:40.940Z,13.68
2022-11-03T04:09:16.206Z,14.11
2022-11-03T04:12:08.951Z,14.33
2022-11-03T04:14:57.703Z,14.61
2022-11-03T04:17:45.953Z,14.64
2022-11-03T04:20:34.438Z,14.46
2022-11-03T04:23:05.082Z,14.50
2022-11-03T04:25:36.282Z,14.59
2022-11-03T04:28:09.794Z,14.75
2022-11-03T04:30:53.382Z,14.87
2022-11-03T04:33:27.319Z,13.87
2022-11-03T04:35:59.286Z,12.73
2022-11-03T04:38:34.794Z,13.14
2022-11-03T04:41:08.351Z,13.62
2022-11-03T04:43:37.211Z,13.88
2022-11-03T04:46:10.528Z,14.13
2022-11-03T04:48:41.160Z,14.41
2022-11-03T04:51:17.495Z,14.61
2022-11-03T04:53:50.533Z,14.20
2022-11-03T04:56:22.218Z,12.81
2022-11-03T04:58:53.301Z,11.95
2022-11-03T05:01:24.963Z,12.63
2022-11-03T05:03:59.766Z,13.44
2022-11-03T05:06:31.051Z,13.96
2022-11-03T05:09:03.376Z,14.18
2022-11-03T05:11:36.057Z,13.90
2022-11-03T05:14:14.347Z,12.59
2022-11-03T05:16:45.417Z,11.71
2022-11-03T05:19:16.819Z,12.42
2022-11-03T05:21:51.229Z,13.23
2022-11-03T05:24:25.986Z,13.67
2022-11-03T05:26:57.598Z,13.95
2022-11-03T05:29:31.262Z,14.11
2022-11-03T05:32:11.762Z,14.05
2022-11-03T05:34:44.398Z,12.87
2022-11-03T05:37:26.759Z,12.05
2022-11-03T05:39:59.547Z,12.66
2022-11-03T05:42:36.154Z,13.32
2022-11-03T05:45:23.793Z,13.77
2022-11-03T05:47:55.458Z,14.03
2022-11-03T05:50:26.472Z,14.21
2022-11-03T05:53:05.004Z,14.00
2022-11-03T05:55:37.148Z,12.83
2022-11-03T05:58:14.784Z,11.81
2022-11-03T06:00:48.790Z,12.09
2022-11-03T06:03:22.773Z,13.01
2022-11-03T06:05:54.009Z,13.55
2022-11-03T06:08:27.128Z,13.79
2022-11-03T06:10:59.288Z,13.89
2022-11-03T06:13:32.059Z,13.97
2022-11-03T06:16:05.519Z,13.68
2022-11-03T06:18:37.616Z,12.48
2022-11-03T06:21:10.724Z,12.04
2022-11-03T06:23:46.403Z,12.84
2022-11-03T06:26:25.514Z,13.24
2022-11-03T06:28:57.034Z,13.43
2022-11-03T06:31:28.688Z,13.48
2022-11-03T06:33:59.761Z,13.55
2022-11-03T06:36:37.952Z,13.88
2022-11-03T06:39:12.877Z,13.76
2022-11-03T06:41:43.268Z,12.45
2022-11-03T06:44:21.164Z,12.13
2022-11-03T06:46:51.527Z,13.03
2022-11-03T06:49:28.861Z,13.35
2022-11-03T06:52:00.061Z,13.51
2022-11-03T06:54:31.733Z,13.72
2022-11-03T06:57:02.104Z,13.77
2022-11-03T06:59:32.765Z,13.84
2022-11-03T07:02:03.422Z,13.97
2022-11-03T07:04:34.375Z,14.22
2022-11-03T07:07:05.487Z,14.15
2022-11-03T07:09:36.219Z,13.00
2022-11-03T07:12:14.736Z,12.10
2022-11-03T07:14:45.788Z,12.73
2022-11-03T07:17:17.730Z,13.53
2022-11-03T07:19:48.770Z,14.02
2022-11-03T07:22:21.172Z,14.08
2022-11-03T07:24:53.786Z,12.92
2022-11-03T07:27:25.416Z,12.28
2022-11-03T07:29:58.871Z,13.09
2022-11-03T07:32:30.755Z,13.75
2022-11-03T07:35:04.154Z,13.93
2022-11-03T07:37:35.639Z,14.11
2022-11-03T07:40:07.145Z,14.55
2022-11-03T07:42:37.654Z,14.64
2022-11-03T07:45:32.375Z,14.68
2022-11-03T07:48:04.679Z,13.63
2022-11-03T07:50:35.566Z,12.76
2022-11-03T07:53:10.204Z,13.04
2022-11-03T07:55:41.065Z,14.12
2022-11-03T07:58:22.067Z,14.97
2022-11-03T08:00:57.592Z,14.01
2022-11-03T08:03:29.269Z,13.13
2022-11-03T08:06:00.011Z,13.86
2022-11-03T08:08:31.400Z,14.66
2022-11-03T08:11:06.602Z,15.36
2022-11-03T08:13:37.206Z,15.02
2022-11-03T08:16:08.633Z,14.08
2022-11-03T08:18:39.138Z,13.88
2022-11-03T08:21:14.454Z,14.86
2022-11-03T08:23:54.429Z,15.48
2022-11-03T08:26:29.999Z,15.83
2022-11-03T08:29:00.569Z,16.01
2022-11-03T08:31:35.810Z,15.13
2022-11-03T08:34:06.718Z,14.19
2022-11-03T08:36:37.455Z,14.08
2022-11-03T08:39:07.954Z,15.23
2022-11-03T08:41:38.579Z,16.16
2022-11-03T08:44:08.980Z,15.80
2022-11-03T08:46:39.780Z,14.98
2022-11-03T08:49:10.244Z,14.37
2022-11-03T08:51:46.659Z,13.89
2022-11-03T08:54:17.437Z,14.00
2022-11-03T08:56:52.209Z,15.31
2022-11-03T08:59:28.105Z,15.73
2022-11-03T09:01:59.708Z,14.89
2022-11-03T09:04:34.338Z,14.23
2022-11-03T09:07:10.244Z,13.80
2022-11-03T09:12:31.889Z,15.35
2022-11-03T09:15:02.492Z,16.62
2022-11-03T09:17:33.257Z,16.92
2022-11-03T09:20:09.866Z,16.18
2022-11-03T09:22:41.580Z,15.46
2022-11-03T09:25:12.152Z,15.00
2022-11-03T09:27:47.368Z,14.66
2022-11-03T09:30:19.186Z,14.81
2022-11-03T09:32:49.731Z,16.11
2022-11-03T09:35:21.254Z,16.89
2022-11-03T09:37:52.025Z,16.37
2022-11-03T09:40:27.733Z,15.72
2022-11-03T09:43:03.348Z,15.28
2022-11-03T09:45:34.199Z,15.00
2022-11-03T09:48:05.542Z,14.99
2022-11-03T09:50:36.475Z,16.11
2022-11-03T09:53:07.579Z,16.63
2022-11-03T09:55:38.807Z,16.15
2022-11-03T09:58:14.213Z,15.66
2022-11-03T10:00:45.309Z,15.27
2022-11-03T10:03:18.557Z,15.00
2022-11-03T10:05:49.367Z,14.81
2022-11-03T10:08:23.482Z,14.68
2022-11-03T10:10:54.602Z,14.56
2022-11-03T10:13:28.233Z,14.55
2022-11-03T10:15:58.842Z,15.59
2022-11-03T10:18:29.985Z,16.92
2022-11-03T10:21:03.801Z,16.89
2022-11-03T10:23:34.865Z,16.35
2022-11-03T10:26:09.771Z,15.93
2022-11-03T10:28:40.684Z,15.61
2022-11-03T10:31:21.028Z,15.38
2022-11-03T10:33:55.184Z,15.21
2022-11-03T10:36:26.976Z,15.09
2022-11-03T10:38:57.843Z,14.98
2022-11-03T10:41:29.625Z,14.89
2022-11-03T10:44:04.911Z,14.84
2022-11-03T10:46:50.224Z,14.84
2022-11-03T10:49:21.954Z,14.82
2022-11-03T10:51:53.865Z,14.80
2022-11-03T10:54:25.936Z,14.80
2022-11-03T10:56:56.706Z,14.80
2022-11-03T10:59:32.256Z,14.79
2022-11-03T11:02:03.214Z,14.76
2022-11-03T11:04:34.693Z,14.76
2022-11-03T11:07:13.489Z,14.77
2022-11-03T11:09:44.044Z,14.79
2022-11-03T11:12:18.952Z,14.79
2022-11-03T11:14:56.964Z,14.74
2022-11-03T11:17:47.037Z,14.73
2022-11-03T11:20:43.482Z,14.72
2022-11-03T11:23:31.109Z,14.71
2022-11-03T11:26:15.371Z,14.72
2022-11-03T11:28:46.516Z,14.78
2022-11-03T11:31:31.024Z,14.82
2022-11-03T11:34:18.771Z,14.84
2022-11-03T11:37:11.440Z,14.88
2022-11-03T11:39:47.929Z,14.91
2022-11-03T11:42:20.434Z,14.95
2022-11-03T11:45:02.032Z,14.97
2022-11-03T11:47:34.322Z,15.02
2022-11-03T11:50:16.539Z,15.08
2022-11-03T11:52:48.809Z,15.10
2022-11-03T11:55:20.485Z,15.10
2022-11-03T11:57:51.742Z,15.08
2022-11-03T12:00:24.819Z,15.11
2022-11-03T12:02:56.681Z,15.13
2022-11-03T12:05:28.505Z,15.15
2022-11-03T12:07:59.676Z,15.18
2022-11-03T12:10:31.361Z,15.22
2022-11-03T12:13:02.121Z,15.25
2022-11-03T12:15:50.304Z,15.26
2022-11-03T12:18:40.689Z,15.29
2022-11-03T12:21:14.279Z,15.28
2022-11-03T12:23:50.140Z,15.28
2022-11-03T12:26:40.964Z,15.25
2022-11-03T12:29:15.836Z,15.26
2022-11-03T12:31:48.143Z,15.29
2022-11-03T12:34:23.081Z,15.29
2022-11-03T12:36:56.379Z,15.26
2022-11-03T12:39:27.309Z,15.24
2022-11-03T12:41:58.447Z,15.26
2022-11-03T12:44:29.146Z,15.28
2022-11-03T12:46:59.958Z,15.32
2022-11-03T12:49:30.683Z,15.35
2022-11-03T12:52:08.318Z,15.34
2022-11-03T12:54:39.765Z,15.36
2022-11-03T12:57:10.250Z,15.41
2022-11-03T12:59:41.262Z,15.43
2022-11-03T13:02:16.772Z,15.42
2022-11-03T13:04:48.974Z,15.41
2022-11-03T13:07:26.617Z,15.40
2022-11-03T13:10:05.053Z,15.39
2022-11-03T13:12:41.764Z,15.45
2022-11-03T13:15:13.703Z,15.56
2022-11-03T13:18:12.399Z,16.08
2022-11-03T13:20:41.185Z,17.05
2022-11-03T13:23:11.740Z,17.83
2022-11-03T13:25:43.386Z,18.60
2022-11-03T13:28:13.897Z,19.23
2022-11-03T13:30:44.916Z,19.67
2022-11-03T13:33:15.493Z,20.07
2022-11-03T13:35:46.449Z,20.38
2022-11-03T13:38:17.137Z,20.49
2022-11-03T13:40:59.217Z,20.57
2022-11-03T13:43:34.172Z,20.71
2022-11-03T13:46:05.366Z,20.85
2022-11-03T13:51:36.464Z,20.99
2022-11-03T14:00:01.870Z,20.51
2022-11-03T14:05:34.927Z,19.80
2022-11-03T14:08:06.611Z,19.50
2022-11-03T14:10:37.375Z,19.19
2022-11-03T14:13:08.885Z,18.92
2022-11-03T14:15:39.904Z,18.65
2022-11-03T14:18:20.570Z,18.21
2022-11-03T14:21:00.524Z,17.69
2022-11-03T14:23:40.218Z,17.19
2022-11-03T14:26:40.225Z,16.70
2022-11-03T14:29:11.002Z,16.27
2022-11-03T14:31:41.442Z,15.97
2022-11-03T14:34:12.069Z,15.75
2022-11-03T14:36:42.694Z,15.61
2022-11-03T14:39:13.539Z,15.54
2022-11-03T14:42:01.736Z,15.45
2022-11-03T14:44:32.629Z,15.24
2022-11-03T14:47:03.771Z,15.08
2022-11-03T14:49:35.289Z,14.92
2022-11-03T14:52:10.792Z,14.77
2022-11-03T14:54:52.265Z,14.59
2022-11-03T14:57:23.030Z,14.43
2022-11-03T14:59:53.958Z,14.25
2022-11-03T15:02:25.063Z,14.11
2022-11-03T15:04:56.523Z,13.99
2022-11-03T15:07:32.396Z,13.87
2022-11-03T15:10:03.092Z,13.73
2022-11-03T15:12:33.824Z,13.61
2022-11-03T15:15:04.860Z,13.53
2022-11-03T15:17:35.614Z,13.45
2022-11-03T15:20:07.182Z,13.37
2022-11-03T15:25:32.192Z,13.19
2022-11-03T15:28:04.877Z,13.13
2022-11-03T15:30:35.997Z,13.07
2022-11-03T15:33:06.911Z,13.01
2022-11-03T15:35:38.055Z,12.95
2022-11-03T15:38:09.213Z,12.88
2022-11-03T15:40:40.396Z,12.83
2022-11-03T15:43:11.203Z,12.78
2022-11-03T15:45:42.242Z,12.73
2022-11-03T15:48:13.111Z,12.68
2022-11-03T15:50:43.902Z,12.63
2022-11-03T15:53:14.546Z,12.59
2022-11-03T15:55:45.158Z,12.55
2022-11-03T15:58:15.613Z,12.50
2022-11-03T16:00:46.438Z,12.46
2022-11-03T16:03:17.226Z,12.43
2022-11-03T16:05:48.052Z,12.41
2022-11-03T16:08:18.804Z,12.37
2022-11-03T16:10:54.709Z,12.34
2022-11-03T16:13:28.047Z,12.67
2022-11-03T16:15:58.642Z,13.90
2022-11-03T16:18:29.345Z,14.00
2022-11-03T16:20:59.871Z,13.54
2022-11-03T16:23:34.802Z,13.17
2022-11-03T16:26:05.792Z,12.93
2022-11-03T16:28:36.265Z,12.76
2022-11-03T16:31:07.520Z,12.62
2022-11-03T16:33:37.944Z,12.52
2022-11-03T16:36:09.383Z,12.44
2022-11-03T16:38:39.847Z,12.37
2022-11-03T16:41:10.658Z,12.31
2022-11-03T16:43:41.279Z,12.47
2022-11-03T16:46:12.332Z,13.76
2022-11-03T16:48:42.953Z,14.60
2022-11-03T16:51:14.000Z,14.13
2022-11-03T16:53:45.040Z,13.59
2022-11-03T16:56:15.895Z,13.20
2022-11-03T16:58:46.399Z,12.87
2022-11-03T17:01:21.409Z,12.62
2022-11-03T17:03:54.142Z,12.41
2022-11-03T17:06:24.711Z,12.24
2022-11-03T17:09:00.037Z,12.08
2022-11-03T17:11:37.109Z,12.00
2022-11-03T17:14:08.846Z,12.88
2022-11-03T17:16:42.445Z,13.68
2022-11-03T17:19:11.845Z,13.32
2022-11-03T17:21:43.474Z,12.80
2022-11-03T17:24:14.004Z,12.46
2022-11-03T17:26:51.603Z,12.20
2022-11-03T17:29:23.874Z,11.96
2022-11-03T17:32:00.162Z,11.91
2022-11-03T17:34:34.858Z,12.95
2022-11-03T17:37:06.003Z,13.53
2022-11-03T17:39:38.170Z,12.94
2022-11-03T17:42:16.074Z,12.39
2022-11-03T17:44:51.871Z,11.98
2022-11-03T17:47:27.595Z,11.70
2022-11-03T17:50:02.946Z,12.17
2022-11-03T17:52:38.098Z,13.47
2022-11-03T17:55:16.718Z,14.21
2022-11-03T17:57:47.773Z,13.56
2022-11-03T18:00:21.007Z,12.82
2022-11-03T18:02:52.763Z,12.25
2022-11-03T18:05:26.824Z,11.85
2022-11-03T18:07:58.114Z,11.87
2022-11-03T18:10:30.288Z,13.12
2022-11-03T18:13:17.556Z,13.97
2022-11-03T18:15:49.690Z,13.30
2022-11-03T18:18:22.758Z,12.64
2022-11-03T18:20:54.104Z,12.15
2022-11-03T18:23:25.397Z,12.01
2022-11-03T18:25:55.855Z,13.12
2022-11-03T18:28:26.337Z,14.08
2022-11-03T18:30:57.752Z,13.69
2022-11-03T18:33:30.739Z,12.94
2022-11-03T18:36:03.105Z,12.37
2022-11-03T18:38:36.237Z,11.98
2022-11-03T18:41:28.129Z,11.93
2022-11-03T18:43:59.214Z,13.16
2022-11-03T18:46:30.728Z,14.05
2022-11-03T18:49:01.459Z,13.55
2022-11-03T18:51:31.964Z,12.82
2022-11-03T18:54:02.544Z,12.27
2022-11-03T18:56:35.841Z,12.17
2022-11-03T18:59:15.583Z,13.28
2022-11-03T19:01:46.902Z,14.39
2022-11-03T19:04:18.042Z,14.12
2022-11-03T19:06:52.145Z,13.31
2022-11-03T19:09:24.955Z,12.62
2022-11-03T19:11:56.752Z,12.29
2022-11-03T19:14:32.965Z,13.20
2022-11-03T19:17:21.960Z,14.04
2022-11-03T19:19:59.904Z,13.40
2022-11-03T19:22:31.058Z,12.65
2022-11-03T19:25:01.740Z,12.47
2022-11-03T19:27:38.947Z,13.60
2022-11-03T19:30:12.860Z,14.33
2022-11-03T19:32:48.919Z,13.74
2022-11-03T19:35:27.317Z,12.94
2022-11-03T19:38:04.256Z,12.35
2022-11-03T19:41:00.304Z,12.32
2022-11-03T19:43:34.627Z,13.52
2022-11-03T19:46:06.224Z,14.20
2022-11-03T19:48:41.115Z,13.61
2022-11-03T19:51:13.677Z,12.86
2022-11-03T19:53:47.257Z,12.56
2022-11-03T19:56:19.670Z,13.56
2022-11-03T19:58:50.196Z,14.39
2022-11-03T20:01:21.487Z,14.06
2022-11-03T20:03:56.953Z,13.26
2022-11-03T20:06:28.169Z,12.62
2022-11-03T20:08:58.794Z,12.46
2022-11-03T20:11:29.848Z,13.49
2022-11-03T20:14:00.477Z,14.48
2022-11-03T20:16:32.132Z,14.64
2022-11-03T20:19:03.367Z,13.83
2022-11-03T20:21:34.648Z,13.02
2022-11-03T20:24:05.966Z,12.76
2022-11-03T20:26:36.704Z,13.76
2022-11-03T20:29:12.502Z,14.42
2022-11-03T20:31:43.712Z,13.78
2022-11-03T20:34:15.852Z,12.92
2022-11-03T20:36:48.128Z,12.67
2022-11-03T20:39:19.947Z,13.59
2022-11-03T20:41:52.459Z,14.45
2022-11-03T20:44:23.958Z,14.13
2022-11-03T20:46:54.650Z,13.16
2022-11-03T20:49:25.336Z,12.74
2022-11-03T20:51:56.628Z,13.54
2022-11-03T20:54:27.248Z,14.46
2022-11-03T20:56:57.878Z,14.96
2022-11-03T20:59:32.103Z,14.11
2022-11-03T21:02:12.177Z,13.19
2022-11-03T21:04:41.345Z,12.54
2022-11-03T21:07:15.688Z,12.08
2022-11-03T21:09:46.292Z,12.05
2022-11-03T21:12:18.759Z,13.19
2022-11-03T21:15:03.224Z,14.26
2022-11-03T21:17:51.774Z,14.75
2022-11-03T21:20:22.707Z,13.96
2022-11-03T21:22:54.429Z,13.09
2022-11-03T21:25:25.532Z,12.43
2022-11-03T21:27:56.242Z,12.80
2022-11-03T21:30:26.775Z,13.88
2022-11-03T21:33:02.424Z,14.82
2022-11-03T21:35:38.289Z,15.01
2022-11-03T21:38:09.917Z,14.04
2022-11-03T21:40:45.685Z,13.09
2022-11-03T21:43:34.307Z,12.53
2022-11-03T21:46:05.876Z,13.48
2022-11-03T21:48:54.049Z,14.46
2022-11-03T21:51:25.283Z,14.50
2022-11-03T21:53:56.208Z,13.57
2022-11-03T21:56:30.792Z,12.72
2022-11-03T21:59:01.550Z,12.44
2022-11-03T22:01:32.103Z,13.34
2022-11-03T22:04:03.264Z,14.21
2022-11-03T22:06:33.689Z,14.45
2022-11-03T22:09:08.487Z,13.52
2022-11-03T22:11:39.321Z,12.64
2022-11-03T22:14:11.944Z,12.30
2022-11-03T22:16:42.935Z,13.24
2022-11-03T22:19:32.553Z,14.14
2022-11-03T22:22:21.866Z,14.87
2022-11-03T22:25:10.125Z,15.02
2022-11-03T22:27:40.756Z,13.91
2022-11-03T22:30:29.410Z,13.02
2022-11-03T22:33:04.141Z,12.28
2022-11-03T22:35:57.622Z,12.06
2022-11-03T22:38:42.292Z,13.27
2022-11-03T22:41:30.231Z,14.28
2022-11-03T22:44:18.789Z,14.97
2022-11-03T22:46:49.403Z,14.99
2022-11-03T22:49:24.839Z,13.95
2022-11-03T22:52:00.093Z,13.03
2022-11-03T22:54:30.935Z,12.35
2022-11-03T22:57:01.602Z,12.50
2022-11-03T22:59:32.220Z,13.61
2022-11-03T23:02:03.022Z,14.48
2022-11-03T23:04:33.640Z,14.88
2022-11-03T23:07:04.154Z,14.19
2022-11-03T23:09:34.791Z,13.17
2022-11-03T23:12:06.039Z,12.62
2022-11-03T23:14:50.504Z,13.49
2022-11-03T23:17:41.392Z,14.36
2022-11-03T23:20:29.837Z,14.49
2022-11-03T23:23:00.593Z,13.32
2022-11-03T23:25:32.569Z,12.48
2022-11-03T23:28:03.263Z,13.00
2022-11-03T23:30:33.966Z,13.90
2022-11-03T23:33:05.363Z,14.56
2022-11-03T23:35:40.246Z,14.74
2022-11-03T23:38:11.061Z,13.70
2022-11-03T23:40:42.236Z,12.64
2022-11-03T23:43:13.820Z,12.62
2022-11-03T23:46:01.974Z,13.68
2022-11-03T23:48:51.232Z,14.25
2022-11-03T23:51:23.287Z,14.30
2022-11-03T23:53:54.257Z,13.21
2022-11-03T23:56:52.241Z,12.55
2022-11-03T23:59:22.857Z,13.43
